Aérodrome :
LOGIN :

S'inscrire | Disclaimer

   EN    FR    IT 

 










Légende :    VFR   VFR Marginal   IFR   IFR Intensif   IFR Très Intensif
Visi : 
Plafond : 
>= 8 km
>= 3000ft
5 à 8 km
1000 à 3000 ft
1500m à 5 km
500 à 1000 ft
800 à 1500m
200 à 500 ft
< 800m
< 200 ft
Symboles :   Orages  Brouillard  Fortes neiges  Fortes précipitations  Vent > 20 kt
SIGMETs :   Divers  Orages  Givrage  Turbulence  Onde Orograph.  Cendres Volcan.







- Altitude de l'aérodrome : 348 ft
- Code IATA : STN
- Voir les cartes d'approche


EGSS - London Stansted

DERNIER METAR :
  • 160250Z AUTO 21006KT 9999 NCD 09/08 Q1015

METARs EXPIRÉS :
  • 160220Z AUTO 22006KT 9999 NCD 09/08 Q1015
  • 160150Z AUTO 22007KT 9999 NCD 09/09 Q1015
  • 160120Z AUTO 22007KT 9999 NCD 09/09 Q1015
  • 160050Z AUTO 22007KT 9999 NCD 10/09 Q1015
  • 160020Z AUTO 22007KT 9999 NCD 10/09 Q1015

TAF TAF EGSS
Valide du 16 à 00h jusqu'au 17 à 06h UTC


152302Z 1600/1706 20009KT 9999 FEW010
PROB40 1600/1607 4000 BR BKN004
PROB30
TEMPO 1607/1613 BKN012
TEMPO 1610/1615 22017G27KT 7000 SHRA
PROB30 1701/1706 BKN008
ATIS : +44 1279 669 325
Pas de NOTAMs connus pour ce terrain.



MET'MAP, la Météo Aéronautique d'un coup d'oeil ! - Copyright ORBIFLY Décembre 2007 - Disclaimer

ORBIFLY MET'MAP TEAM :

Programmation & Développement : Alexandra Zaïnal
Conception & Développement : Baudouin d'Aumeries
Co-Programmation & Développement : Marc-Olivier Méhu
Soutien technique & logistique : Manuel Goepfert

Contact : metmap@orbifly.com




SOURCES & CREDITS :

   NOAA